»·PEaware :: N4657 KSNA-KCRQ

N4657 :: KSNA-KCRQ

FLIGHT INFORMATION

Flight Status: Arrived
Operator: Privately registered:
United States
More flights under this callsign
Pilot: Daniel P. (20187)
Aircraft: PILATUS PC-12 EAGLE
(PC12)
More flights by this aircraft type
Origin: KSNA John Wayne-Orange Co
United States
Destination: KCRQ McClellan-Palomar
United States
More flights between these airports :: More routes between these airports
Route: +V25 PACIF V208 OCN
File this flight plan on PilotEdge
Remarks: I2 TEST
Altitude:
(Current/Filed)
70ft
Speed:
(Current/Filed)
180kts
Departed: 10-Sep-18 11:34 AM
Arrived: 10-Sep-18 12:04 PM
Distance/Time
Traveled:
44nm/0:30
Distance/Time
To Go:
Arrived

Flight Plot

Page will automatically refresh every two minutes.


Map Options




Map Legend


Flown Route
Filed Route
Departure Airport
Arrival Airport
Navaid (VOR, NDB)
Fix

Horizontal Profiles

Position Reports

Time Latitude Longitude Heading Altitude Ground
Speed
10-Sep-18 10:46 33.673566 -117.872549 297 60ft 0kts
10-Sep-18 10:47 33.673566 -117.872549 297 60ft 0kts
10-Sep-18 10:48 33.673566 -117.872549 297 60ft 0kts
10-Sep-18 10:49 33.673566 -117.872549 297 60ft 0kts
10-Sep-18 10:50 33.673566 -117.872549 297 60ft 0kts
10-Sep-18 10:51 33.673566 -117.872549 297 60ft 0kts
10-Sep-18 10:52 33.673566 -117.872549 297 60ft 0kts
10-Sep-18 10:53 33.673566 -117.872549 297 60ft 0kts
10-Sep-18 10:54 33.673566 -117.872549 297 60ft 0kts
10-Sep-18 10:55 33.673566 -117.872549 297 60ft 0kts
10-Sep-18 10:56 33.673566 -117.872549 297 60ft 0kts
10-Sep-18 10:57 33.673566 -117.872549 297 60ft 0kts
10-Sep-18 10:58 33.673566 -117.872549 297 60ft 0kts
10-Sep-18 10:59 33.673566 -117.872549 297 60ft 0kts
10-Sep-18 11:00 33.673566 -117.872549 297 60ft 0kts
10-Sep-18 11:01 33.673566 -117.872549 297 60ft 0kts
10-Sep-18 11:02 33.673566 -117.872549 297 60ft 0kts
10-Sep-18 11:03 33.673566 -117.872549 297 60ft 0kts
10-Sep-18 11:04 33.673566 -117.872549 297 60ft 0kts
10-Sep-18 11:05 33.673566 -117.872549 297 60ft 0kts
10-Sep-18 11:06 33.673566 -117.872549 297 60ft 0kts
10-Sep-18 11:07 33.673566 -117.872549 297 60ft 0kts
10-Sep-18 11:08 33.673566 -117.872549 297 60ft 0kts
10-Sep-18 11:09 33.673566 -117.872549 297 60ft 0kts
10-Sep-18 11:10 33.673566 -117.872549 297 60ft 0kts
10-Sep-18 11:11 33.673566 -117.872549 297 60ft 0kts
10-Sep-18 11:12 33.673566 -117.872549 297 60ft 0kts
10-Sep-18 11:13 33.673566 -117.872549 297 60ft 0kts
10-Sep-18 11:14 33.673566 -117.872549 297 60ft 0kts
10-Sep-18 11:15 33.673566 -117.872549 297 60ft 0kts
10-Sep-18 11:16 33.673566 -117.872549 297 60ft 0kts
10-Sep-18 11:17 33.673566 -117.872549 297 60ft 0kts
10-Sep-18 11:18 33.673566 -117.872549 297 60ft 0kts
10-Sep-18 11:19 33.673566 -117.872549 297 60ft 0kts
10-Sep-18 11:20 33.673566 -117.872549 297 60ft 0kts
10-Sep-18 11:21 33.673566 -117.872550 297 60ft 0kts
10-Sep-18 11:22 33.673566 -117.872550 297 60ft 0kts
10-Sep-18 11:23 33.673566 -117.872550 297 60ft 0kts
10-Sep-18 11:24 33.673566 -117.872550 297 60ft 0kts
10-Sep-18 11:25 33.673566 -117.872550 297 60ft 0kts
10-Sep-18 11:26 33.673566 -117.872550 297 60ft 0kts
10-Sep-18 11:27 33.673566 -117.872550 297 60ft 0kts
10-Sep-18 11:28 33.673566 -117.872550 297 60ft 0kts
10-Sep-18 11:29 33.673566 -117.872550 297 60ft 0kts
10-Sep-18 11:30 33.673688 -117.871882 64 60ft 7kts
10-Sep-18 11:31 33.676716 -117.869669 26 60ft 14kts
10-Sep-18 11:32 33.680058 -117.867782 29 60ft 10kts
10-Sep-18 11:33 33.681182 -117.866381 121 60ft 0kts
10-Sep-18 11:34 33.681182 -117.866381 121 60ft 0kts
10-Sep-18 11:35 33.681182 -117.866381 121 60ft 0kts
10-Sep-18 11:36 33.670851 -117.871897 205 329ft 114kts
10-Sep-18 11:37 33.640513 -117.881274 186 2295ft 117kts
10-Sep-18 11:38 33.602810 -117.886099 185 4290ft 164kts
10-Sep-18 11:39 33.557329 -117.891013 185 6276ft 164kts
10-Sep-18 11:40 33.509857 -117.895339 186 7005ft 186kts
10-Sep-18 11:41 33.456701 -117.895718 170 7004ft 199kts
10-Sep-18 11:42 33.406271 -117.869150 150 7004ft 204kts
10-Sep-18 11:43 33.361478 -117.827019 140 7001ft 206kts
10-Sep-18 11:44 33.318486 -117.782011 140 6997ft 206kts
10-Sep-18 11:45 33.284332 -117.732403 102 6992ft 188kts
10-Sep-18 11:46 33.275871 -117.673913 99 6975ft 174kts
10-Sep-18 11:47 33.268084 -117.616746 98 6972ft 183kts
10-Sep-18 11:48 33.259651 -117.555090 98 6968ft 189kts
10-Sep-18 11:49 33.251112 -117.492958 98 6969ft 191kts
10-Sep-18 11:50 33.242666 -117.431797 98 6970ft 180kts
10-Sep-18 11:51 33.246937 -117.373761 80 6972ft 174kts
10-Sep-18 11:52 33.253169 -117.317281 81 6974ft 173kts
10-Sep-18 11:53 33.259611 -117.260146 81 6978ft 174kts
10-Sep-18 11:54 33.266239 -117.202772 81 6983ft 174kts
10-Sep-18 11:55 33.272821 -117.146889 81 6374ft 162kts
10-Sep-18 11:56 33.279420 -117.094324 81 5270ft 159kts
10-Sep-18 11:57 33.286236 -117.038828 99 4990ft 179kts
10-Sep-18 11:58 33.248001 -117.025565 191 4790ft 156kts
10-Sep-18 11:59 33.208030 -117.033059 190 3920ft 142kts
10-Sep-18 12:00 33.172048 -117.059808 237 3492ft 158kts
10-Sep-18 12:01 33.157647 -117.107008 254 3491ft 148kts
10-Sep-18 12:02 33.148423 -117.155029 258 2817ft 161kts
10-Sep-18 12:03 33.141822 -117.196097 257 1729ft 89kts
10-Sep-18 12:04 33.136694 -117.227721 257 1137ft 91kts
10-Sep-18 12:05 33.131991 -117.256874 257 629ft 97kts
10-Sep-18 12:06 33.128097 -117.281044 252 311ft 18kts
10-Sep-18 12:07 33.127122 -117.282036 77 312ft 11kts
10-Sep-18 12:08 33.127457 -117.277578 146 309ft 7kts
10-Sep-18 12:09 33.127511 -117.275428 348 307ft 0kts
10-Sep-18 12:10 33.127511 -117.275428 348 307ft 0kts
10-Sep-18 12:11 33.127511 -117.275428 348 307ft 0kts
10-Sep-18 12:12 33.127511 -117.275428 348 307ft 0kts
10-Sep-18 12:13 33.127511 -117.275428 348 307ft 0kts
10-Sep-18 12:14 33.127511 -117.275428 348 307ft 0kts
10-Sep-18 12:15 33.127511 -117.275428 348 307ft 0kts
10-Sep-18 12:16 33.127511 -117.275428 348 307ft 0kts
10-Sep-18 12:17 33.127511 -117.275428 348 307ft 0kts
10-Sep-18 12:18 33.127511 -117.275428 348 307ft 0kts
10-Sep-18 12:19 33.127511 -117.275428 348 307ft 0kts
10-Sep-18 12:20 33.127511 -117.275428 348 307ft 0kts

Navigation Log

Ident Type
1. KSNA Airport
2. PACIF Fix
3. HUBRD Fix
4. OCN Navaid
5. KCRQ Airport